sensor_id;sensor_type;location;lat;lon;timestamp;pressure;altitude;pressure_sealevel;temperature;humidity
73564;BME280;61834;50.196;6.454;2022-07-03T00:01:33;96624.97;;;20.14;54.71
73564;BME280;61834;50.196;6.454;2022-07-03T00:03:58;96627.75;;;20.14;54.45
73564;BME280;61834;50.196;6.454;2022-07-03T00:06:25;96626.94;;;20.13;54.62
73564;BME280;61834;50.196;6.454;2022-07-03T00:08:50;96620.59;;;20.13;54.38
73564;BME280;61834;50.196;6.454;2022-07-03T00:11:16;96624.16;;;20.13;54.64
73564;BME280;61834;50.196;6.454;2022-07-03T00:13:42;96624.97;;;20.14;54.50
73564;BME280;61834;50.196;6.454;2022-07-03T00:16:07;96626.16;;;20.13;54.56
73564;BME280;61834;50.196;6.454;2022-07-03T00:18:33;96625.41;;;20.12;54.55
73564;BME280;61834;50.196;6.454;2022-07-03T00:21:03;96628.19;;;20.12;54.38
73564;BME280;61834;50.196;6.454;2022-07-03T00:23:29;96628.63;;;20.11;54.37
73564;BME280;61834;50.196;6.454;2022-07-03T00:25:55;96636.53;;;20.12;54.50
73564;BME280;61834;50.196;6.454;2022-07-03T00:28:23;96627.84;;;20.10;54.62
73564;BME280;61834;50.196;6.454;2022-07-03T00:30:50;96629.38;;;20.11;54.49
73564;BME280;61834;50.196;6.454;2022-07-03T00:33:18;96627.06;;;20.10;54.58
73564;BME280;61834;50.196;6.454;2022-07-03T00:35:43;96628.28;;;20.09;54.63
73564;BME280;61834;50.196;6.454;2022-07-03T00:38:11;96625.50;;;20.09;54.67
73564;BME280;61834;50.196;6.454;2022-07-03T00:40:37;96630.63;;;20.10;54.73
73564;BME280;61834;50.196;6.454;2022-07-03T00:43:03;96620.69;;;20.09;54.45
73564;BME280;61834;50.196;6.454;2022-07-03T00:45:33;96622.72;;;20.09;54.66
73564;BME280;61834;50.196;6.454;2022-07-03T00:47:58;96615.59;;;20.08;54.61
73564;BME280;61834;50.196;6.454;2022-07-03T00:50:25;96612.03;;;20.07;54.47
73564;BME280;61834;50.196;6.454;2022-07-03T00:52:52;96606.94;;;20.06;54.56
73564;BME280;61834;50.196;6.454;2022-07-03T00:55:18;96607.69;;;20.06;54.51
73564;BME280;61834;50.196;6.454;2022-07-03T00:57:46;96610.91;;;20.05;54.51
73564;BME280;61834;50.196;6.454;2022-07-03T01:00:16;96609.72;;;20.06;54.31
73564;BME280;61834;50.196;6.454;2022-07-03T01:02:46;96609.72;;;20.06;54.60
73564;BME280;61834;50.196;6.454;2022-07-03T01:07:46;96599.00;;;20.04;54.52
73564;BME280;61834;50.196;6.454;2022-07-03T01:15:11;96601.47;;;20.02;54.47
73564;BME280;61834;50.196;6.454;2022-07-03T01:17:55;96595.47;;;20.04;54.40
73564;BME280;61834;50.196;6.454;2022-07-03T01:20:27;96595.13;;;20.02;54.28
73564;BME280;61834;50.196;6.454;2022-07-03T01:22:57;96593.13;;;20.02;54.39
73564;BME280;61834;50.196;6.454;2022-07-03T01:25:26;96602.66;;;20.01;54.50
73564;BME280;61834;50.196;6.454;2022-07-03T01:30:29;96606.22;;;20.02;54.39
73564;BME280;61834;50.196;6.454;2022-07-03T01:33:02;96595.13;;;20.02;54.35
73564;BME280;61834;50.196;6.454;2022-07-03T01:35:32;96591.53;;;20.01;54.48
73564;BME280;61834;50.196;6.454;2022-07-03T01:38:04;96592.00;;;20.00;54.44
73564;BME280;61834;50.196;6.454;2022-07-03T01:40:32;96591.19;;;19.99;54.21
73564;BME280;61834;50.196;6.454;2022-07-03T01:42:59;96593.97;;;19.99;54.43
73564;BME280;61834;50.196;6.454;2022-07-03T01:45:27;96592.44;;;19.98;54.44
73564;BME280;61834;50.196;6.454;2022-07-03T01:47:56;96596.75;;;19.99;54.30
73564;BME280;61834;50.196;6.454;2022-07-03T01:50:24;96596.00;;;19.99;54.39
73564;BME280;61834;50.196;6.454;2022-07-03T01:52:50;96586.09;;;19.98;54.48
73564;BME280;61834;50.196;6.454;2022-07-03T01:55:16;96593.97;;;19.99;54.47
73564;BME280;61834;50.196;6.454;2022-07-03T01:57:48;96591.66;;;19.98;54.65
73564;BME280;61834;50.196;6.454;2022-07-03T02:00:22;96584.53;;;19.97;54.36
73564;BME280;61834;50.196;6.454;2022-07-03T02:03:02;96582.56;;;19.97;54.23
73564;BME280;61834;50.196;6.454;2022-07-03T02:10:39;96575.41;;;19.96;54.45
73564;BME280;61834;50.196;6.454;2022-07-03T02:13:11;96567.97;;;19.93;54.21
73564;BME280;61834;50.196;6.454;2022-07-03T02:15:43;96571.53;;;19.94;54.49
73564;BME280;61834;50.196;6.454;2022-07-03T02:18:27;96571.53;;;19.94;54.55
73564;BME280;61834;50.196;6.454;2022-07-03T02:21:14;96575.06;;;19.94;54.29
73564;BME280;61834;50.196;6.454;2022-07-03T02:26:16;96577.53;;;19.92;54.56
73564;BME280;61834;50.196;6.454;2022-07-03T02:28:58;96586.63;;;19.93;54.33
73564;BME280;61834;50.196;6.454;2022-07-03T02:31:26;96588.19;;;19.94;54.48
73564;BME280;61834;50.196;6.454;2022-07-03T02:33:57;96583.09;;;19.92;54.32
73564;BME280;61834;50.196;6.454;2022-07-03T02:36:24;96579.53;;;19.92;54.85
73564;BME280;61834;50.196;6.454;2022-07-03T02:38:55;96581.50;;;19.91;54.61
73564;BME280;61834;50.196;6.454;2022-07-03T02:41:27;96587.84;;;19.92;54.56
73564;BME280;61834;50.196;6.454;2022-07-03T02:44:01;96575.19;;;19.91;54.51
73564;BME280;61834;50.196;6.454;2022-07-03T02:46:52;96582.75;;;19.90;54.56
73564;BME280;61834;50.196;6.454;2022-07-03T02:52:28;96575.63;;;19.89;54.47
73564;BME280;61834;50.196;6.454;2022-07-03T02:54:59;96578.41;;;19.89;54.77
73564;BME280;61834;50.196;6.454;2022-07-03T02:57:34;96578.06;;;19.87;54.41
73564;BME280;61834;50.196;6.454;2022-07-03T03:00:03;96580.84;;;19.87;54.37
73564;BME280;61834;50.196;6.454;2022-07-03T03:02:42;96588.38;;;19.87;54.26
73564;BME280;61834;50.196;6.454;2022-07-03T03:05:21;96587.59;;;19.86;54.38
73564;BME280;61834;50.196;6.454;2022-07-03T03:08:10;96589.63;;;19.86;54.26
73564;BME280;61834;50.196;6.454;2022-07-03T03:10:37;96584.81;;;19.86;54.44
73564;BME280;61834;50.196;6.454;2022-07-03T03:13:11;96591.59;;;19.85;54.20
73564;BME280;61834;50.196;6.454;2022-07-03T03:15:37;96593.59;;;19.85;54.67
73564;BME280;61834;50.196;6.454;2022-07-03T03:18:08;96592.41;;;19.86;54.34
73564;BME280;61834;50.196;6.454;2022-07-03T03:20:37;96593.59;;;19.85;53.96
73564;BME280;61834;50.196;6.454;2022-07-03T03:23:09;96592.41;;;19.86;54.57
73564;BME280;61834;50.196;6.454;2022-07-03T03:25:36;96599.50;;;19.87;54.38
73564;BME280;61834;50.196;6.454;2022-07-03T03:28:02;96596.38;;;19.85;54.06
73564;BME280;61834;50.196;6.454;2022-07-03T03:30:28;96601.19;;;19.84;54.07
73564;BME280;61834;50.196;6.454;2022-07-03T03:32:53;96603.16;;;19.84;54.12
73564;BME280;61834;50.196;6.454;2022-07-03T03:35:19;96601.59;;;19.83;54.09
73564;BME280;61834;50.196;6.454;2022-07-03T03:37:45;96601.59;;;19.83;54.29
73564;BME280;61834;50.196;6.454;2022-07-03T03:40:11;96596.81;;;19.83;54.33
73564;BME280;61834;50.196;6.454;2022-07-03T03:42:37;96606.38;;;19.82;54.33
73564;BME280;61834;50.196;6.454;2022-07-03T03:45:03;96600.38;;;19.84;54.13
73564;BME280;61834;50.196;6.454;2022-07-03T03:47:29;96602.47;;;19.80;54.29
73564;BME280;61834;50.196;6.454;2022-07-03T03:49:54;96604.81;;;19.81;54.12
73564;BME280;61834;50.196;6.454;2022-07-03T03:52:20;96599.69;;;19.80;54.28
73564;BME280;61834;50.196;6.454;2022-07-03T03:54:46;96608.03;;;19.80;54.23
73564;BME280;61834;50.196;6.454;2022-07-03T03:57:20;96608.03;;;19.80;54.12
73564;BME280;61834;50.196;6.454;2022-07-03T03:59:46;96604.81;;;19.81;53.77
73564;BME280;61834;50.196;6.454;2022-07-03T04:02:12;96611.16;;;19.82;53.90
73564;BME280;61834;50.196;6.454;2022-07-03T04:04:38;96611.16;;;19.82;54.02
73564;BME280;61834;50.196;6.454;2022-07-03T04:07:03;96606.47;;;19.79;53.97
73564;BME280;61834;50.196;6.454;2022-07-03T04:09:29;96614.38;;;19.80;54.00
73564;BME280;61834;50.196;6.454;2022-07-03T04:11:55;96615.16;;;19.81;53.85
73564;BME280;61834;50.196;6.454;2022-07-03T04:14:20;96617.16;;;19.80;53.90
73564;BME280;61834;50.196;6.454;2022-07-03T04:16:45;96619.13;;;19.80;53.73
73564;BME280;61834;50.196;6.454;2022-07-03T04:19:11;96624.69;;;19.80;53.91
73564;BME280;61834;50.196;6.454;2022-07-03T04:21:36;96629.50;;;19.79;53.90
73564;BME280;61834;50.196;6.454;2022-07-03T04:24:02;96628.69;;;19.79;53.68
73564;BME280;61834;50.196;6.454;2022-07-03T04:26:27;96629.50;;;19.79;53.62
73564;BME280;61834;50.196;6.454;2022-07-03T04:28:52;96627.13;;;19.78;53.64
73564;BME280;61834;50.196;6.454;2022-07-03T04:31:18;96627.91;;;19.78;53.60
73564;BME280;61834;50.196;6.454;2022-07-03T04:33:43;96636.69;;;19.77;53.63
73564;BME280;61834;50.196;6.454;2022-07-03T04:36:08;96630.34;;;19.76;53.71
73564;BME280;61834;50.196;6.454;2022-07-03T04:38:34;96637.91;;;19.76;53.62
73564;BME280;61834;50.196;6.454;2022-07-03T04:40:59;96633.13;;;19.76;53.60
73564;BME280;61834;50.196;6.454;2022-07-03T04:43:24;96639.47;;;19.77;53.63
73564;BME280;61834;50.196;6.454;2022-07-03T04:45:50;96633.91;;;19.77;53.60
73564;BME280;61834;50.196;6.454;2022-07-03T04:48:15;96639.91;;;19.75;53.51
73564;BME280;61834;50.196;6.454;2022-07-03T04:50:40;96643.47;;;19.76;53.40
73564;BME280;61834;50.196;6.454;2022-07-03T04:53:06;96637.91;;;19.76;53.37
73564;BME280;61834;50.196;6.454;2022-07-03T04:55:31;96631.56;;;19.75;53.40
73564;BME280;61834;50.196;6.454;2022-07-03T04:57:57;96634.34;;;19.75;53.41
73564;BME280;61834;50.196;6.454;2022-07-03T05:00:22;96633.56;;;19.75;53.40
73564;BME280;61834;50.196;6.454;2022-07-03T05:02:47;96635.56;;;19.74;53.39
73564;BME280;61834;50.196;6.454;2022-07-03T05:05:13;96633.56;;;19.75;53.23
73564;BME280;61834;50.196;6.454;2022-07-03T05:07:38;96636.34;;;19.75;53.46
73564;BME280;61834;50.196;6.454;2022-07-03T05:10:04;96632.78;;;19.74;53.47
73564;BME280;61834;50.196;6.454;2022-07-03T05:12:29;96634.78;;;19.74;53.23
73564;BME280;61834;50.196;6.454;2022-07-03T05:14:54;96643.47;;;19.76;53.36
73564;BME280;61834;50.196;6.454;2022-07-03T05:17:20;96641.13;;;19.74;53.31
73564;BME280;61834;50.196;6.454;2022-07-03T05:19:45;96638.34;;;19.74;53.34
73564;BME280;61834;50.196;6.454;2022-07-03T05:22:11;96644.66;;;19.75;53.22
73564;BME280;61834;50.196;6.454;2022-07-03T05:24:36;96647.44;;;19.75;53.25
73564;BME280;61834;50.196;6.454;2022-07-03T05:27:02;96650.66;;;19.73;53.21
73564;BME280;61834;50.196;6.454;2022-07-03T05:29:27;96662.56;;;19.74;53.26
73564;BME280;61834;50.196;6.454;2022-07-03T05:31:53;96660.56;;;19.74;53.32
73564;BME280;61834;50.196;6.454;2022-07-03T05:34:18;96663.34;;;19.74;53.35
73564;BME280;61834;50.196;6.454;2022-07-03T05:36:43;96664.91;;;19.75;53.22
73564;BME280;61834;50.196;6.454;2022-07-03T05:39:09;96665.69;;;19.76;53.20
73564;BME280;61834;50.196;6.454;2022-07-03T05:41:53;96657.81;;;19.74;53.18
73564;BME280;61834;50.196;6.454;2022-07-03T05:44:18;96663.34;;;19.74;53.35
73564;BME280;61834;50.196;6.454;2022-07-03T05:46:43;96658.56;;;19.75;53.25
73564;BME280;61834;50.196;6.454;2022-07-03T05:49:09;96657.81;;;19.74;53.04
73564;BME280;61834;50.196;6.454;2022-07-03T05:51:34;96660.13;;;19.76;53.35
73564;BME280;61834;50.196;6.454;2022-07-03T05:53:59;96661.34;;;19.75;53.55
73564;BME280;61834;50.196;6.454;2022-07-03T05:56:25;96663.69;;;19.76;53.44
73564;BME280;61834;50.196;6.454;2022-07-03T05:58:50;96660.13;;;19.76;53.47
73564;BME280;61834;50.196;6.454;2022-07-03T06:01:16;96656.91;;;19.77;53.43
73564;BME280;61834;50.196;6.454;2022-07-03T06:03:41;96664.47;;;19.77;53.45
73564;BME280;61834;50.196;6.454;2022-07-03T06:06:06;96656.91;;;19.77;53.52
73564;BME280;61834;50.196;6.454;2022-07-03T06:08:32;96656.91;;;19.77;53.57
73564;BME280;61834;50.196;6.454;2022-07-03T06:10:57;96652.91;;;19.78;53.61
73564;BME280;61834;50.196;6.454;2022-07-03T06:13:23;96648.16;;;19.79;53.65
73564;BME280;61834;50.196;6.454;2022-07-03T06:15:48;96654.91;;;19.78;53.50
73564;BME280;61834;50.196;6.454;2022-07-03T06:18:14;96656.03;;;19.80;53.67
73564;BME280;61834;50.196;6.454;2022-07-03T06:20:39;96656.84;;;19.81;53.75
73564;BME280;61834;50.196;6.454;2022-07-03T06:23:04;96663.16;;;19.81;53.66
73564;BME280;61834;50.196;6.454;2022-07-03T06:25:30;96655.59;;;19.82;53.80
73564;BME280;61834;50.196;6.454;2022-07-03T06:27:55;96659.94;;;19.83;53.77
73564;BME280;61834;50.196;6.454;2022-07-03T06:30:20;96660.72;;;19.83;53.78
73564;BME280;61834;50.196;6.454;2022-07-03T06:32:46;96663.06;;;19.85;53.90
73564;BME280;61834;50.196;6.454;2022-07-03T06:35:11;96657.50;;;19.85;53.74
73564;BME280;61834;50.196;6.454;2022-07-03T06:37:36;96664.28;;;19.84;53.87
73564;BME280;61834;50.196;6.454;2022-07-03T06:40:02;96659.09;;;19.86;53.90
73564;BME280;61834;50.196;6.454;2022-07-03T06:42:28;96653.19;;;19.84;53.94
73564;BME280;61834;50.196;6.454;2022-07-03T06:44:53;96652.72;;;19.85;53.74
73564;BME280;61834;50.196;6.454;2022-07-03T06:47:18;96653.53;;;19.86;53.95
73564;BME280;61834;50.196;6.454;2022-07-03T06:49:44;96652.66;;;19.89;53.77
73564;BME280;61834;50.196;6.454;2022-07-03T06:52:10;96656.63;;;19.88;53.86
73564;BME280;61834;50.196;6.454;2022-07-03T06:54:35;96659.41;;;19.88;53.96
73564;BME280;61834;50.196;6.454;2022-07-03T06:57:04;96640.75;;;19.88;53.82
73564;BME280;61834;50.196;6.454;2022-07-03T06:59:30;96642.31;;;19.89;53.79
73564;BME280;61834;50.196;6.454;2022-07-03T07:01:55;96645.09;;;19.89;53.88
73564;BME280;61834;50.196;6.454;2022-07-03T07:04:20;96638.31;;;19.90;53.93
73564;BME280;61834;50.196;6.454;2022-07-03T07:06:46;96637.88;;;19.92;53.86
73564;BME280;61834;50.196;6.454;2022-07-03T07:09:11;96641.09;;;19.90;53.95
73564;BME280;61834;50.196;6.454;2022-07-03T07:11:36;96649.00;;;19.92;53.76
73564;BME280;61834;50.196;6.454;2022-07-03T07:14:02;96644.97;;;19.93;53.92
73564;BME280;61834;50.196;6.454;2022-07-03T07:16:27;96646.22;;;19.92;54.04
73564;BME280;61834;50.196;6.454;2022-07-03T07:18:54;96643.00;;;19.93;54.16
73564;BME280;61834;50.196;6.454;2022-07-03T07:21:19;96642.19;;;19.93;53.94
73564;BME280;61834;50.196;6.454;2022-07-03T07:23:45;96643.78;;;19.94;53.93
73564;BME280;61834;50.196;6.454;2022-07-03T07:26:10;96641.34;;;19.96;54.12
73564;BME280;61834;50.196;6.454;2022-07-03T07:28:37;96642.09;;;19.96;54.01
73564;BME280;61834;50.196;6.454;2022-07-03T07:31:02;96644.88;;;19.96;53.97
73564;BME280;61834;50.196;6.454;2022-07-03T07:33:28;96644.13;;;19.96;54.08
73564;BME280;61834;50.196;6.454;2022-07-03T07:35:53;96644.00;;;19.99;54.08
73564;BME280;61834;50.196;6.454;2022-07-03T07:38:18;96638.44;;;19.99;53.95
73564;BME280;61834;50.196;6.454;2022-07-03T07:40:44;96637.59;;;20.02;53.94
73564;BME280;61834;50.196;6.454;2022-07-03T07:43:09;96647.03;;;20.05;54.09
73564;BME280;61834;50.196;6.454;2022-07-03T07:45:35;96644.59;;;20.07;54.22
73564;BME280;61834;50.196;6.454;2022-07-03T07:48:00;96641.38;;;20.08;53.96
73564;BME280;61834;50.196;6.454;2022-07-03T07:50:26;96638.97;;;20.10;53.87
73564;BME280;61834;50.196;6.454;2022-07-03T07:52:51;96644.06;;;20.12;54.06
73564;BME280;61834;50.196;6.454;2022-07-03T07:55:17;96644.06;;;20.12;54.14
73564;BME280;61834;50.196;6.454;2022-07-03T07:57:43;96647.97;;;20.14;53.82
73564;BME280;61834;50.196;6.454;2022-07-03T08:00:13;96645.56;;;20.17;53.97
73564;BME280;61834;50.196;6.454;2022-07-03T08:02:39;96647.91;;;20.18;53.93
73564;BME280;61834;50.196;6.454;2022-07-03T08:05:23;96643.13;;;20.19;53.96
73564;BME280;61834;50.196;6.454;2022-07-03T08:08:08;96651.47;;;20.19;53.88
73564;BME280;61834;50.196;6.454;2022-07-03T08:10:38;96653.53;;;20.14;53.98
73564;BME280;61834;50.196;6.454;2022-07-03T08:13:05;96647.44;;;20.20;53.96
73564;BME280;61834;50.196;6.454;2022-07-03T08:15:30;96644.59;;;20.23;53.86
73564;BME280;61834;50.196;6.454;2022-07-03T08:17:56;96643.03;;;20.22;53.68
73564;BME280;61834;50.196;6.454;2022-07-03T08:20:21;96639.03;;;20.23;53.61
73564;BME280;61834;50.196;6.454;2022-07-03T08:22:47;96651.72;;;20.24;53.70
73564;BME280;61834;50.196;6.454;2022-07-03T08:25:12;96652.72;;;20.30;53.20
73564;BME280;61834;50.196;6.454;2022-07-03T08:27:37;96656.41;;;20.27;53.36
73564;BME280;61834;50.196;6.454;2022-07-03T08:30:03;96640.41;;;20.31;53.31
73564;BME280;61834;50.196;6.454;2022-07-03T08:32:29;96655.06;;;20.32;53.11
73564;BME280;61834;50.196;6.454;2022-07-03T08:34:54;96651.28;;;20.26;53.45
73564;BME280;61834;50.196;6.454;2022-07-03T08:37:20;96648.25;;;20.20;53.57
73564;BME280;61834;50.196;6.454;2022-07-03T08:39:45;96649.91;;;20.18;53.56
73564;BME280;61834;50.196;6.454;2022-07-03T08:42:11;96651.91;;;20.17;53.47
73564;BME280;61834;50.196;6.454;2022-07-03T08:44:38;96652.69;;;20.18;53.40
73564;BME280;61834;50.196;6.454;2022-07-03T08:47:07;96655.91;;;20.16;53.15
73564;BME280;61834;50.196;6.454;2022-07-03T08:49:34;96654.75;;;20.13;53.41
73564;BME280;61834;50.196;6.454;2022-07-03T08:52:00;96661.53;;;20.12;53.62
73564;BME280;61834;50.196;6.454;2022-07-03T08:54:25;96654.41;;;20.11;53.58
73564;BME280;61834;50.196;6.454;2022-07-03T08:56:51;96658.41;;;20.10;53.66
73564;BME280;61834;50.196;6.454;2022-07-03T08:59:17;96658.41;;;20.10;53.73
73564;BME280;61834;50.196;6.454;2022-07-03T09:01:45;96652.06;;;20.10;53.72
73564;BME280;61834;50.196;6.454;2022-07-03T09:04:12;96661.19;;;20.10;53.76
73564;BME280;61834;50.196;6.454;2022-07-03T09:06:40;96654.06;;;20.09;53.73
73564;BME280;61834;50.196;6.454;2022-07-03T09:09:06;96663.09;;;20.13;53.75
73564;BME280;61834;50.196;6.454;2022-07-03T09:11:32;96656.75;;;20.13;53.72
73564;BME280;61834;50.196;6.454;2022-07-03T09:13:57;96654.84;;;20.10;53.75
73564;BME280;61834;50.196;6.454;2022-07-03T09:16:22;96657.63;;;20.10;53.69
73564;BME280;61834;50.196;6.454;2022-07-03T09:18:48;96653.66;;;20.11;53.75
73564;BME280;61834;50.196;6.454;2022-07-03T09:21:15;96654.41;;;20.11;53.91
73564;BME280;61834;50.196;6.454;2022-07-03T09:23:43;96657.53;;;20.13;53.77
73564;BME280;61834;50.196;6.454;2022-07-03T09:26:14;96654.75;;;20.13;53.69
73564;BME280;61834;50.196;6.454;2022-07-03T09:28:53;96650.22;;;20.20;53.56
73564;BME280;61834;50.196;6.454;2022-07-03T09:31:22;96651.47;;;20.19;53.64
73564;BME280;61834;50.196;6.454;2022-07-03T09:36:22;96656.59;;;20.20;53.57
73564;BME280;61834;50.196;6.454;2022-07-03T09:38:48;96655.53;;;20.14;53.74
73564;BME280;61834;50.196;6.454;2022-07-03T09:41:13;96661.84;;;20.14;53.70
73564;BME280;61834;50.196;6.454;2022-07-03T09:43:43;96662.75;;;20.11;53.63
73564;BME280;61834;50.196;6.454;2022-07-03T09:46:09;96658.75;;;20.12;53.54
73564;BME280;61834;50.196;6.454;2022-07-03T09:48:39;96669.81;;;20.16;53.75
73564;BME280;61834;50.196;6.454;2022-07-03T09:54:03;96661.03;;;20.18;53.58
73564;BME280;61834;50.196;6.454;2022-07-03T09:56:38;96665.38;;;20.19;53.49
73564;BME280;61834;50.196;6.454;2022-07-03T10:01:43;96666.16;;;20.19;53.59
73564;BME280;61834;50.196;6.454;2022-07-03T10:04:20;96663.38;;;20.19;53.59
73564;BME280;61834;50.196;6.454;2022-07-03T10:06:51;96667.78;;;20.17;53.76
73564;BME280;61834;50.196;6.454;2022-07-03T10:09:19;96655.13;;;20.16;53.60
73564;BME280;61834;50.196;6.454;2022-07-03T10:11:45;96658.25;;;20.18;53.65
73564;BME280;61834;50.196;6.454;2022-07-03T10:14:16;96656.75;;;20.13;53.85
73564;BME280;61834;50.196;6.454;2022-07-03T10:16:42;96661.47;;;20.16;53.68
73564;BME280;61834;50.196;6.454;2022-07-03T10:19:12;96657.13;;;20.15;53.81
73564;BME280;61834;50.196;6.454;2022-07-03T10:21:41;96656.69;;;20.17;53.71
73564;BME280;61834;50.196;6.454;2022-07-03T10:24:08;96657.81;;;20.19;53.73
73564;BME280;61834;50.196;6.454;2022-07-03T10:26:34;96661.34;;;20.20;53.59
73564;BME280;61834;50.196;6.454;2022-07-03T10:29:01;96650.22;;;20.20;53.71
73564;BME280;61834;50.196;6.454;2022-07-03T10:31:27;96647.97;;;20.14;53.71
73564;BME280;61834;50.196;6.454;2022-07-03T10:33:53;96650.75;;;20.14;53.72
73564;BME280;61834;50.196;6.454;2022-07-03T10:36:20;96645.91;;;20.19;53.73
73564;BME280;61834;50.196;6.454;2022-07-03T10:38:48;96647.44;;;20.20;53.76
73564;BME280;61834;50.196;6.454;2022-07-03T10:41:19;96650.69;;;20.18;53.81
73564;BME280;61834;50.196;6.454;2022-07-03T10:44:05;96648.59;;;20.22;53.83
73564;BME280;61834;50.196;6.454;2022-07-03T10:46:49;96652.16;;;20.23;53.60
73564;BME280;61834;50.196;6.454;2022-07-03T10:49:15;96655.69;;;20.23;53.72
73564;BME280;61834;50.196;6.454;2022-07-03T10:52:00;96649.03;;;20.21;53.75
73564;BME280;61834;50.196;6.454;2022-07-03T10:54:32;96653.00;;;20.20;53.46
73564;BME280;61834;50.196;6.454;2022-07-03T10:57:04;96651.38;;;20.22;53.76
73564;BME280;61834;50.196;6.454;2022-07-03T11:02:40;96647.72;;;20.25;53.64
73564;BME280;61834;50.196;6.454;2022-07-03T11:20:30;96626.69;;;20.24;53.57
73564;BME280;61834;50.196;6.454;2022-07-03T11:26:00;96630.94;;;20.29;53.58
73564;BME280;61834;50.196;6.454;2022-07-03T11:41:23;96609.81;;;20.31;53.91
73564;BME280;61834;50.196;6.454;2022-07-03T11:43:55;96615.56;;;20.24;53.99
73564;BME280;61834;50.196;6.454;2022-07-03T11:46:30;96606.78;;;20.26;53.98
73564;BME280;61834;50.196;6.454;2022-07-03T11:49:15;96610.78;;;20.25;54.07
73564;BME280;61834;50.196;6.454;2022-07-03T11:51:42;96614.00;;;20.23;54.07
73564;BME280;61834;50.196;6.454;2022-07-03T11:54:08;96610.47;;;20.23;54.06
73564;BME280;61834;50.196;6.454;2022-07-03T11:56:35;96615.56;;;20.24;54.06
73564;BME280;61834;50.196;6.454;2022-07-03T11:59:03;96614.59;;;20.31;53.71
73564;BME280;61834;50.196;6.454;2022-07-03T12:01:33;96605.81;;;20.32;53.87
73564;BME280;61834;50.196;6.454;2022-07-03T12:06:49;96603.81;;;20.33;53.64
73564;BME280;61834;50.196;6.454;2022-07-03T12:09:29;96605.34;;;20.34;53.71
73564;BME280;61834;50.196;6.454;2022-07-03T12:14:43;96612.91;;;20.33;53.89
73564;BME280;61834;50.196;6.454;2022-07-03T12:17:11;96607.34;;;20.33;54.05
73564;BME280;61834;50.196;6.454;2022-07-03T12:19:37;96612.47;;;20.35;53.83
73564;BME280;61834;50.196;6.454;2022-07-03T12:22:04;96601.34;;;20.35;53.80
73564;BME280;61834;50.196;6.454;2022-07-03T12:24:29;96605.72;;;20.36;53.69
73564;BME280;61834;50.196;6.454;2022-07-03T12:26:55;96608.03;;;20.37;53.77
73564;BME280;61834;50.196;6.454;2022-07-03T12:29:20;96609.81;;;20.31;53.76
73564;BME280;61834;50.196;6.454;2022-07-03T12:31:47;96613.00;;;20.30;54.05
73564;BME280;61834;50.196;6.454;2022-07-03T12:34:15;96607.13;;;20.28;54.22
73564;BME280;61834;50.196;6.454;2022-07-03T12:36:57;96607.03;;;20.31;53.55
73564;BME280;61834;50.196;6.454;2022-07-03T12:39:23;96602.69;;;20.30;53.97
73564;BME280;61834;50.196;6.454;2022-07-03T12:41:49;96612.59;;;20.31;53.91
73564;BME280;61834;50.196;6.454;2022-07-03T12:44:14;96614.84;;;20.36;53.95
73564;BME280;61834;50.196;6.454;2022-07-03T12:46:43;96606.59;;;20.33;53.91
73564;BME280;61834;50.196;6.454;2022-07-03T12:49:11;96602.94;;;20.36;53.77
73564;BME280;61834;50.196;6.454;2022-07-03T12:51:49;96604.56;;;20.33;53.90
73564;BME280;61834;50.196;6.454;2022-07-03T12:54:36;96611.81;;;20.31;54.02
73564;BME280;61834;50.196;6.454;2022-07-03T12:57:06;96601.78;;;20.33;53.91
73564;BME280;61834;50.196;6.454;2022-07-03T13:02:39;96596.56;;;20.35;54.00
73564;BME280;61834;50.196;6.454;2022-07-03T13:07:45;96603.38;;;20.34;53.83
73564;BME280;61834;50.196;6.454;2022-07-03T13:10:14;96604.03;;;20.38;53.88
73564;BME280;61834;50.196;6.454;2022-07-03T13:12:56;96603.59;;;20.40;53.54
73564;BME280;61834;50.196;6.454;2022-07-03T13:15:26;96599.25;;;20.39;53.78
73564;BME280;61834;50.196;6.454;2022-07-03T13:20:21;96596.56;;;20.35;53.97
73564;BME280;61834;50.196;6.454;2022-07-03T13:22:47;96595.38;;;20.36;54.05
73564;BME280;61834;50.196;6.454;2022-07-03T13:25:13;96607.16;;;20.40;53.95
73564;BME280;61834;50.196;6.454;2022-07-03T13:27:39;96602.03;;;20.39;54.03
73564;BME280;61834;50.196;6.454;2022-07-03T13:30:05;96611.38;;;20.45;53.65
73564;BME280;61834;50.196;6.454;2022-07-03T13:32:30;96602.63;;;20.46;53.81
73564;BME280;61834;50.196;6.454;2022-07-03T13:34:56;96612.06;;;20.49;53.90
73564;BME280;61834;50.196;6.454;2022-07-03T13:37:21;96606.84;;;20.51;53.66
73564;BME280;61834;50.196;6.454;2022-07-03T13:39:47;96606.41;;;20.52;53.51
73564;BME280;61834;50.196;6.454;2022-07-03T13:42:12;96607.94;;;20.53;53.52
73564;BME280;61834;50.196;6.454;2022-07-03T13:44:37;96610.72;;;20.53;53.42
73564;BME280;61834;50.196;6.454;2022-07-03T13:47:04;96616.63;;;20.55;53.45
73564;BME280;61834;50.196;6.454;2022-07-03T13:49:31;96600.75;;;20.56;53.37
73564;BME280;61834;50.196;6.454;2022-07-03T13:51:56;96603.53;;;20.56;53.31
73564;BME280;61834;50.196;6.454;2022-07-03T13:54:22;96602.28;;;20.57;53.46
73564;BME280;61834;50.196;6.454;2022-07-03T13:56:47;96598.75;;;20.56;53.43
73564;BME280;61834;50.196;6.454;2022-07-03T13:59:13;96597.97;;;20.56;53.30
73564;BME280;61834;50.196;6.454;2022-07-03T14:01:38;96609.75;;;20.60;53.16
73564;BME280;61834;50.196;6.454;2022-07-03T14:04:04;96608.53;;;20.61;53.11
73564;BME280;61834;50.196;6.454;2022-07-03T14:06:29;96608.09;;;20.62;53.46
73564;BME280;61834;50.196;6.454;2022-07-03T14:08:54;96608.75;;;20.66;53.21
73564;BME280;61834;50.196;6.454;2022-07-03T14:11:20;96611.22;;;20.64;53.37
73564;BME280;61834;50.196;6.454;2022-07-03T14:13:45;96616.88;;;20.61;53.39
73564;BME280;61834;50.196;6.454;2022-07-03T14:16:11;96612.53;;;20.60;53.29
73564;BME280;61834;50.196;6.454;2022-07-03T14:18:37;96616.78;;;20.64;53.12
73564;BME280;61834;50.196;6.454;2022-07-03T14:21:02;96611.22;;;20.64;53.12